Hoyleton, Illinois
Current Conditions -  °F | °C
As of 7:35 AM on Wednesday 22 Oct 2014 (Local Time) from KENL Reporting Station
Haze Haze  
Wind Chill: 39°   Ceiling: Unl
Heat Index: 39°   Visibility: 4mi
Dew Point: 37°   Wind: 3mph
Humidity: 94%   Direction: 80°E
Pressure: 30.3"   Gusts: NA
Location:  38.44°N, 89.27°W
Report Text: KENL 221235Z AUTO 08003KT 4SM BR CLR 04/03 A3030 RMK AO2 T00370028
Loading
Personal Weather Stations






























Interactive Weather Map
Tropical Storm Tracking
New forecast layout! Learn more

10-Day Weather Forecast

Advertisements
Track Severe Weather on mobile